createdAt,value
2023-04-20T00:00:48.333Z,97020.38
2023-04-20T00:03:18.455Z,97012.97
2023-04-20T00:05:49.280Z,97007.81
2023-04-20T00:08:17.607Z,97009.97
2023-04-20T00:10:46.054Z,97002.91
2023-04-20T00:13:13.960Z,97000.31
2023-04-20T00:15:41.664Z,96992.81
2023-04-20T00:18:09.438Z,96990.00
2023-04-20T00:20:37.324Z,96992.00
2023-04-20T00:23:06.293Z,96986.66
2023-04-20T00:25:34.142Z,96993.72
2023-04-20T00:28:02.004Z,96990.47
2023-04-20T00:30:29.712Z,96986.88
2023-04-20T00:32:58.600Z,96995.50
2023-04-20T00:35:26.433Z,97001.75
2023-04-20T00:37:54.204Z,96992.81
2023-04-20T00:40:21.865Z,96991.03
2023-04-20T00:42:49.607Z,97005.38
2023-04-20T00:45:18.192Z,96993.16
2023-04-20T00:47:46.358Z,96989.22
2023-04-20T00:50:14.134Z,96982.84
2023-04-20T00:52:42.004Z,96996.47
2023-04-20T00:55:09.907Z,96994.69
2023-04-20T00:57:39.629Z,96997.19
2023-04-20T01:00:08.057Z,97007.75
2023-04-20T01:02:37.118Z,96999.16
2023-04-20T01:05:05.011Z,96997.00
2023-04-20T01:07:34.216Z,97002.63
2023-04-20T01:10:02.004Z,96996.56
2023-04-20T01:12:29.839Z,96996.53
2023-04-20T01:14:57.610Z,96997.69
2023-04-20T01:17:26.134Z,96997.88
2023-04-20T01:19:53.902Z,96988.56
2023-04-20T01:22:21.795Z,96998.97
2023-04-20T01:24:49.467Z,96991.97
2023-04-20T01:27:17.738Z,97000.31
2023-04-20T01:29:45.650Z,96997.28
2023-04-20T01:32:13.445Z,96987.81
2023-04-20T01:34:41.741Z,96984.72
2023-04-20T01:37:09.800Z,96998.19
2023-04-20T01:39:40.106Z,96996.50
2023-04-20T01:42:08.632Z,96994.44
2023-04-20T01:44:36.290Z,96986.28
2023-04-20T01:47:04.605Z,96987.31
2023-04-20T01:49:32.523Z,96982.44
2023-04-20T01:52:00.350Z,96980.13
2023-04-20T01:54:28.568Z,96982.03
2023-04-20T01:56:56.322Z,96980.03
2023-04-20T01:59:24.176Z,96980.94
2023-04-20T02:01:52.068Z,96978.06
2023-04-20T02:04:20.806Z,96975.97
2023-04-20T02:06:48.691Z,96978.06
2023-04-20T02:09:17.133Z,96970.09
2023-04-20T02:11:45.140Z,96972.69
2023-04-20T02:14:12.841Z,96970.41
2023-04-20T02:16:41.555Z,96968.22
2023-04-20T02:19:09.986Z,96961.41
2023-04-20T02:21:38.012Z,96974.78
2023-04-20T02:24:06.376Z,96976.25
2023-04-20T02:26:34.121Z,96975.53
2023-04-20T02:29:01.834Z,96977.47
2023-04-20T02:31:29.588Z,96972.88
2023-04-20T02:33:57.339Z,96974.97
2023-04-20T02:36:28.329Z,96981.91
2023-04-20T02:38:56.291Z,96986.38
2023-04-20T02:41:24.005Z,96983.66
2023-04-20T02:43:51.856Z,96993.09
2023-04-20T02:46:20.609Z,96993.09
2023-04-20T02:48:49.295Z,96992.25
2023-04-20T02:51:17.160Z,96994.41
2023-04-20T02:53:47.244Z,96980.09
2023-04-20T02:56:28.084Z,96987.94
2023-04-20T02:58:59.602Z,96989.34
2023-04-20T03:01:47.607Z,96983.66
2023-04-20T03:04:19.432Z,96982.72
2023-04-20T03:06:55.276Z,96989.75
2023-04-20T03:09:28.231Z,96994.88
2023-04-20T03:12:02.623Z,96988.69
2023-04-20T03:14:52.188Z,96978.28
2023-04-20T03:17:25.177Z,96981.00
2023-04-20T03:19:53.103Z,96987.94
2023-04-20T03:22:21.233Z,96988.38
2023-04-20T03:24:53.629Z,96983.59
2023-04-20T03:27:51.085Z,96988.31
2023-04-20T03:30:19.767Z,96980.91
2023-04-20T03:32:52.782Z,96989.09
2023-04-20T03:35:21.108Z,96989.31
2023-04-20T03:37:49.107Z,96979.41
2023-04-20T03:40:16.844Z,96985.38
2023-04-20T03:42:44.772Z,96986.03
2023-04-20T03:45:12.570Z,96986.38
2023-04-20T03:47:40.636Z,96985.47
2023-04-20T03:50:08.646Z,96983.69
2023-04-20T03:52:36.442Z,96983.94
2023-04-20T03:55:06.598Z,96995.81
2023-04-20T03:57:36.051Z,96998.06
2023-04-20T04:00:05.817Z,96999.69
2023-04-20T04:02:46.142Z,96998.47
2023-04-20T04:05:18.531Z,96995.91
2023-04-20T04:07:46.301Z,96999.16
2023-04-20T04:10:14.561Z,97005.16
2023-04-20T04:12:42.310Z,97007.47
2023-04-20T04:15:10.926Z,97005.22
2023-04-20T04:17:47.991Z,97010.34
2023-04-20T04:20:15.853Z,97009.75
2023-04-20T04:22:45.023Z,97009.66
2023-04-20T04:25:42.483Z,97013.59
2023-04-20T04:28:14.696Z,97015.59
2023-04-20T04:30:52.411Z,97011.69
2023-04-20T04:33:20.356Z,97013.19
2023-04-20T04:35:50.600Z,97012.03
2023-04-20T04:38:18.446Z,97019.69
2023-04-20T04:40:49.929Z,97015.53
2023-04-20T04:43:19.527Z,97013.19
2023-04-20T04:45:58.467Z,97012.50
2023-04-20T04:48:27.377Z,97020.16
2023-04-20T04:50:55.061Z,97019.47
2023-04-20T04:53:22.859Z,97023.47
2023-04-20T04:55:50.555Z,97019.47
2023-04-20T04:58:18.249Z,97023.06
2023-04-20T05:00:45.944Z,97018.63
2023-04-20T05:03:13.889Z,97029.72
2023-04-20T05:05:41.768Z,97026.94
2023-04-20T05:08:09.506Z,97022.00
2023-04-20T05:10:37.212Z,97028.19
2023-04-20T05:13:04.958Z,97031.53
2023-04-20T05:15:32.820Z,97031.09
2023-04-20T05:18:02.323Z,97038.94
2023-04-20T05:20:30.177Z,97043.53
2023-04-20T05:22:58.001Z,97039.28
2023-04-20T05:25:25.840Z,97043.13
2023-04-20T05:27:53.572Z,97042.88
2023-04-20T05:30:22.240Z,97033.72
2023-04-20T05:32:52.343Z,97039.41
2023-04-20T05:35:21.623Z,97032.91
2023-04-20T05:37:49.461Z,97032.72
2023-04-20T05:40:17.238Z,97036.94
2023-04-20T05:42:44.928Z,97034.06
2023-04-20T05:45:12.684Z,97034.50
2023-04-20T05:47:40.408Z,97028.22
2023-04-20T05:50:08.983Z,97043.59
2023-04-20T05:52:36.805Z,97042.69
2023-04-20T05:55:04.816Z,97050.41
2023-04-20T05:57:32.525Z,97048.28
2023-04-20T06:00:00.772Z,97046.50
2023-04-20T06:02:40.906Z,97055.13
2023-04-20T06:05:10.469Z,97050.09
2023-04-20T06:07:38.430Z,97046.03
2023-04-20T06:10:06.834Z,97047.72
2023-04-20T06:12:35.025Z,97046.47
2023-04-20T06:15:03.937Z,97044.16
2023-04-20T06:17:31.795Z,97038.53
2023-04-20T06:19:59.524Z,97039.19
2023-04-20T06:22:27.213Z,97032.88
2023-04-20T06:24:55.015Z,97038.25
2023-04-20T06:27:22.717Z,97034.69
2023-04-20T06:29:50.967Z,97037.75
2023-04-20T06:32:18.657Z,97047.13
2023-04-20T06:34:47.715Z,97039.84
2023-04-20T06:37:15.681Z,97041.06
2023-04-20T06:39:43.477Z,97050.19
2023-04-20T06:42:11.268Z,97043.22
2023-04-20T06:44:41.240Z,97046.69
2023-04-20T06:47:08.974Z,97049.41
2023-04-20T06:49:37.659Z,97053.66
2023-04-20T06:52:06.027Z,97057.41
2023-04-20T06:54:33.816Z,97054.00
2023-04-20T06:57:01.668Z,97046.75
2023-04-20T06:59:29.631Z,97053.09
2023-04-20T07:01:57.399Z,97052.94
2023-04-20T07:04:25.459Z,97052.03
2023-04-20T07:06:54.283Z,97052.66
2023-04-20T07:09:23.198Z,97051.13
2023-04-20T07:11:50.875Z,97060.66
2023-04-20T07:14:18.723Z,97054.00
2023-04-20T07:16:46.520Z,97059.28
2023-04-20T07:19:14.293Z,97059.47
2023-04-20T07:21:42.002Z,97057.75
2023-04-20T07:24:10.319Z,97065.81
2023-04-20T07:26:38.051Z,97061.63
2023-04-20T07:29:06.249Z,97069.59
2023-04-20T07:31:35.522Z,97063.47
2023-04-20T07:34:03.451Z,97068.88
2023-04-20T07:36:31.465Z,97073.91
2023-04-20T07:38:59.192Z,97072.50
2023-04-20T07:41:26.874Z,97071.31
2023-04-20T07:43:54.615Z,97069.13
2023-04-20T07:46:22.855Z,97074.06
2023-04-20T07:48:52.156Z,97063.34
2023-04-20T07:51:19.973Z,97067.31
2023-04-20T07:53:48.697Z,97066.28
2023-04-20T07:56:16.360Z,97067.25
2023-04-20T07:58:44.200Z,97070.28
2023-04-20T08:01:14.366Z,97072.78
2023-04-20T08:03:43.393Z,97071.78
2023-04-20T08:06:11.201Z,97073.03
2023-04-20T08:08:38.975Z,97067.38
2023-04-20T08:11:08.152Z,97068.28
2023-04-20T08:13:36.709Z,97062.50
2023-04-20T08:16:04.657Z,97057.56
2023-04-20T08:18:32.488Z,97044.28
2023-04-20T08:21:00.310Z,97045.50
2023-04-20T08:23:28.692Z,97041.78
2023-04-20T08:25:56.759Z,97037.72
2023-04-20T08:30:57.532Z,97024.13
2023-04-20T08:33:25.921Z,97037.88
2023-04-20T08:35:54.347Z,97032.84
2023-04-20T08:38:32.764Z,97032.47
2023-04-20T08:41:02.291Z,97025.03
2023-04-20T08:43:30.037Z,97032.91
2023-04-20T08:45:59.310Z,97033.84
2023-04-20T08:48:27.402Z,97025.84
2023-04-20T08:50:55.644Z,97027.50
2023-04-20T08:53:23.383Z,97019.13
2023-04-20T08:55:51.326Z,97023.78
2023-04-20T08:58:19.049Z,97026.69
2023-04-20T09:00:49.931Z,97022.78
2023-04-20T09:03:17.848Z,97019.19
2023-04-20T09:05:46.558Z,97014.44
2023-04-20T09:08:15.668Z,97016.44
2023-04-20T09:10:44.112Z,97007.31
2023-04-20T09:13:24.100Z,97010.44
2023-04-20T09:15:51.964Z,97012.97
2023-04-20T09:18:19.887Z,97010.25
2023-04-20T09:20:47.632Z,97014.03
2023-04-20T09:23:19.120Z,97006.94
2023-04-20T09:25:50.104Z,97005.25
2023-04-20T09:28:18.305Z,97003.16
2023-04-20T09:30:47.369Z,96997.94
2023-04-20T09:33:15.403Z,96993.75
2023-04-20T09:35:43.734Z,96998.44
2023-04-20T09:38:15.342Z,96987.56
2023-04-20T09:40:43.167Z,96991.69
2023-04-20T09:43:15.403Z,96985.63
2023-04-20T09:45:43.369Z,96991.66
2023-04-20T09:48:11.151Z,96979.41
2023-04-20T09:50:48.412Z,96978.91
2023-04-20T09:53:17.293Z,96979.22
2023-04-20T09:55:47.207Z,96981.78
2023-04-20T09:58:15.003Z,96974.31
2023-04-20T10:00:43.081Z,96970.03
2023-04-20T10:03:11.459Z,96978.66
2023-04-20T10:05:39.962Z,96968.28
2023-04-20T10:08:07.888Z,96957.28
2023-04-20T10:10:46.302Z,96962.53
2023-04-20T10:13:14.670Z,96964.22
2023-04-20T10:15:42.528Z,96952.75
2023-04-20T10:18:23.467Z,96951.03
2023-04-20T10:20:51.952Z,96943.34
2023-04-20T10:23:20.254Z,96948.41
2023-04-20T10:26:01.773Z,96950.63
2023-04-20T10:28:42.868Z,96946.25
2023-04-20T10:31:15.584Z,96940.06
2023-04-20T10:33:51.906Z,96941.56
2023-04-20T10:36:37.265Z,96943.22
2023-04-20T10:39:26.108Z,96944.25
2023-04-20T10:41:54.554Z,96944.63
2023-04-20T10:44:22.354Z,96952.13
2023-04-20T10:46:51.038Z,96957.28
2023-04-20T10:49:19.259Z,96955.25
2023-04-20T10:51:50.804Z,96959.22
2023-04-20T10:54:18.706Z,96954.53
2023-04-20T10:56:47.446Z,96957.91
2023-04-20T10:59:19.157Z,96960.91
2023-04-20T11:01:47.310Z,96962.84
2023-04-20T11:04:18.347Z,96951.28
2023-04-20T11:06:48.110Z,96962.41
2023-04-20T11:09:28.416Z,96955.34
2023-04-20T11:12:04.207Z,96949.91
2023-04-20T11:14:38.383Z,96956.28
2023-04-20T11:17:06.282Z,96943.53
2023-04-20T11:19:34.984Z,96939.34
2023-04-20T11:22:03.731Z,96944.44
2023-04-20T11:24:32.808Z,96939.28
2023-04-20T11:27:01.971Z,96948.66
2023-04-20T11:29:36.728Z,96935.47
2023-04-20T11:32:08.475Z,96942.13
2023-04-20T11:34:37.313Z,96928.78
2023-04-20T11:37:08.469Z,96928.75
2023-04-20T11:39:36.687Z,96929.75
2023-04-20T11:42:04.893Z,96918.44
2023-04-20T11:44:33.007Z,96915.22
2023-04-20T11:47:01.921Z,96919.69
2023-04-20T11:49:29.684Z,96921.84
2023-04-20T11:51:57.421Z,96921.72
2023-04-20T11:54:27.271Z,96914.75
2023-04-20T11:56:55.167Z,96920.22
2023-04-20T11:59:22.865Z,96925.53
2023-04-20T12:01:50.634Z,96920.22
2023-04-20T12:04:18.554Z,96920.56
2023-04-20T12:06:46.571Z,96940.59
2023-04-20T12:09:14.864Z,96954.28
2023-04-20T12:11:42.636Z,96954.06
2023-04-20T12:14:10.309Z,96946.94
2023-04-20T12:16:38.112Z,96940.09
2023-04-20T12:19:05.832Z,96937.91
2023-04-20T12:21:33.523Z,96929.56
2023-04-20T12:24:01.788Z,96934.78
2023-04-20T12:26:37.820Z,96940.28
2023-04-20T12:29:07.226Z,96934.44
2023-04-20T12:31:35.944Z,96925.41
2023-04-20T12:34:04.222Z,96945.41
2023-04-20T12:36:32.546Z,96948.53
2023-04-20T12:39:00.724Z,96943.47
2023-04-20T12:41:28.484Z,96944.59
2023-04-20T12:43:56.473Z,96945.84
2023-04-20T12:46:24.218Z,96947.88
2023-04-20T12:48:52.154Z,96944.59
2023-04-20T12:51:19.872Z,96945.97
2023-04-20T12:53:47.606Z,96942.13
2023-04-20T12:56:16.806Z,96941.09
2023-04-20T12:58:44.768Z,96932.69
2023-04-20T13:01:12.511Z,96942.53
2023-04-20T13:03:42.534Z,96939.38
2023-04-20T13:06:14.101Z,96943.28
2023-04-20T13:08:42.243Z,96942.28
2023-04-20T13:11:15.405Z,96933.47
2023-04-20T13:13:43.147Z,96932.97
2023-04-20T13:16:11.010Z,96931.03
2023-04-20T13:18:38.756Z,96926.16
2023-04-20T13:21:06.462Z,96919.13
2023-04-20T13:23:34.321Z,96914.97
2023-04-20T13:26:02.052Z,96913.09
2023-04-20T13:28:29.886Z,96923.19
2023-04-20T13:30:57.664Z,96909.97
2023-04-20T13:33:25.914Z,96910.47
2023-04-20T13:35:53.681Z,96914.72
2023-04-20T13:38:21.873Z,96915.69
2023-04-20T13:40:49.630Z,96912.63
2023-04-20T13:43:19.378Z,96914.97
2023-04-20T13:45:48.631Z,96907.72
2023-04-20T13:48:16.454Z,96916.53
2023-04-20T13:50:44.201Z,96896.00
2023-04-20T13:53:11.970Z,96901.97
2023-04-20T13:55:40.111Z,96891.06
2023-04-20T13:58:07.887Z,96878.88
2023-04-20T14:00:35.582Z,96872.50
2023-04-20T14:03:05.571Z,96859.09
2023-04-20T14:05:33.352Z,96864.22
2023-04-20T14:08:01.751Z,96879.31
2023-04-20T14:10:29.672Z,96902.94
2023-04-20T14:12:57.496Z,96901.72
2023-04-20T14:15:25.403Z,96890.53
2023-04-20T14:17:53.222Z,96899.31
2023-04-20T14:20:21.318Z,96884.06
2023-04-20T14:22:49.081Z,96898.06
2023-04-20T14:25:16.889Z,96906.91
2023-04-20T14:27:44.759Z,96905.78
2023-04-20T14:30:13.158Z,96903.22
2023-04-20T14:32:41.438Z,96913.13
2023-04-20T14:35:09.341Z,96907.19
2023-04-20T14:37:37.189Z,96909.22
2023-04-20T14:40:07.244Z,96914.03
2023-04-20T14:42:35.028Z,96924.47
2023-04-20T14:45:02.758Z,96919.38
2023-04-20T14:47:30.740Z,96931.91
2023-04-20T14:49:58.716Z,96930.59
2023-04-20T14:52:26.875Z,96929.56
2023-04-20T14:54:54.667Z,96935.56
2023-04-20T14:57:22.569Z,96923.88
2023-04-20T14:59:50.285Z,96954.38
2023-04-20T15:02:20.863Z,96964.88
2023-04-20T15:04:48.932Z,96969.19
2023-04-20T15:07:17.908Z,96974.19
2023-04-20T15:09:45.988Z,96968.69
2023-04-20T15:12:13.749Z,96976.03
2023-04-20T15:14:41.667Z,96965.16
2023-04-20T15:17:09.423Z,96972.97
2023-04-20T15:19:37.170Z,96968.31
2023-04-20T15:22:04.865Z,96983.91
2023-04-20T15:24:32.892Z,96977.16
2023-04-20T15:27:01.601Z,96984.41
2023-04-20T15:29:29.621Z,96987.28
2023-04-20T15:31:57.425Z,96985.44
2023-04-20T15:34:25.496Z,96987.66
2023-04-20T15:36:53.163Z,96980.00
2023-04-20T15:39:20.991Z,96968.69
2023-04-20T15:41:48.649Z,96959.28
2023-04-20T15:44:16.783Z,96958.09
2023-04-20T15:46:44.769Z,96961.47
2023-04-20T15:49:12.490Z,96966.28
2023-04-20T15:51:40.913Z,96953.56
2023-04-20T15:54:09.752Z,96950.75
2023-04-20T15:56:37.458Z,96961.44
2023-04-20T15:59:05.394Z,96956.13
2023-04-20T16:01:33.713Z,96963.38
2023-04-20T16:04:01.833Z,96960.75
2023-04-20T16:06:29.723Z,96950.47
2023-04-20T16:08:57.769Z,96946.16
2023-04-20T16:11:25.528Z,96939.16
2023-04-20T16:13:55.454Z,96936.97
2023-04-20T16:16:23.216Z,96936.88
2023-04-20T16:18:52.088Z,96941.34
2023-04-20T16:21:19.801Z,96934.09
2023-04-20T16:23:47.696Z,96932.88
2023-04-20T16:26:16.107Z,96936.38
2023-04-20T16:28:43.840Z,96929.22
2023-04-20T16:31:11.680Z,96937.91
2023-04-20T16:33:39.763Z,96931.00
2023-04-20T16:36:07.769Z,96932.06
2023-04-20T16:38:35.542Z,96933.38
2023-04-20T16:41:03.530Z,96940.78
2023-04-20T16:43:31.540Z,96939.66
2023-04-20T16:45:59.251Z,96937.84
2023-04-20T16:48:27.069Z,96931.97
2023-04-20T16:50:54.778Z,96928.81
2023-04-20T16:53:22.534Z,96938.31
2023-04-20T16:55:50.420Z,96942.63
2023-04-20T16:58:18.166Z,96939.94
2023-04-20T17:00:45.912Z,96941.91
2023-04-20T17:03:15.061Z,96942.97
2023-04-20T17:05:42.984Z,96944.97
2023-04-20T17:08:10.810Z,96943.38
2023-04-20T17:10:39.317Z,96946.50
2023-04-20T17:13:07.142Z,96950.25
2023-04-20T17:15:34.857Z,96949.69
2023-04-20T17:18:02.696Z,96954.28
2023-04-20T17:20:30.602Z,96953.69
2023-04-20T17:22:58.411Z,96952.41
2023-04-20T17:25:26.201Z,96954.81
2023-04-20T17:27:53.979Z,96959.81
2023-04-20T17:30:21.684Z,96952.44
2023-04-20T17:32:49.371Z,96957.41
2023-04-20T17:35:17.434Z,96952.38
2023-04-20T17:37:45.730Z,96951.56
2023-04-20T17:40:13.460Z,96955.22
2023-04-20T17:42:41.224Z,96956.06
2023-04-20T17:45:09.221Z,96952.97
2023-04-20T17:47:37.038Z,96957.97
2023-04-20T17:50:05.285Z,96952.47
2023-04-20T17:52:33.040Z,96963.94
2023-04-20T17:55:00.926Z,96964.53
2023-04-20T17:57:29.021Z,96966.00
2023-04-20T17:59:56.756Z,96962.00
2023-04-20T18:02:25.036Z,96969.50
2023-04-20T18:04:55.236Z,96971.97
2023-04-20T18:07:23.030Z,96974.31
2023-04-20T18:09:50.760Z,96966.16
2023-04-20T18:12:18.446Z,96976.13
2023-04-20T18:14:46.244Z,96981.72
2023-04-20T18:17:14.022Z,96976.34
2023-04-20T18:19:41.817Z,96984.28
2023-04-20T18:22:09.515Z,96988.63
2023-04-20T18:24:38.000Z,96993.22
2023-04-20T18:27:05.726Z,96992.81
2023-04-20T18:29:33.465Z,97002.56
2023-04-20T18:32:01.499Z,96997.53
2023-04-20T18:34:31.952Z,96988.06
2023-04-20T18:36:59.738Z,96999.69
2023-04-20T18:39:27.527Z,96999.75
2023-04-20T18:41:55.351Z,96995.78
2023-04-20T18:44:23.279Z,96994.06
2023-04-20T18:46:51.393Z,96998.41
2023-04-20T18:49:19.209Z,97004.81
2023-04-20T18:51:47.130Z,96996.59
2023-04-20T18:54:14.821Z,96998.56
2023-04-20T18:56:42.532Z,97004.47
2023-04-20T18:59:10.825Z,97003.16
2023-04-20T19:01:40.569Z,96995.19
2023-04-20T19:04:08.971Z,96996.81
2023-04-20T19:06:36.790Z,97009.22
2023-04-20T19:09:07.305Z,97006.75
2023-04-20T19:11:35.783Z,97007.91
2023-04-20T19:14:03.482Z,97004.91
2023-04-20T19:16:31.764Z,97002.22
2023-04-20T19:18:59.681Z,97011.91
2023-04-20T19:21:27.461Z,97010.56
2023-04-20T19:23:55.605Z,97000.47
2023-04-20T19:26:24.161Z,97007.13
2023-04-20T19:28:51.999Z,97001.66
2023-04-20T19:31:19.809Z,97006.81
2023-04-20T19:33:47.562Z,97015.53
2023-04-20T19:36:15.281Z,97005.03
2023-04-20T19:38:45.911Z,97008.56
2023-04-20T19:41:13.711Z,97004.56
2023-04-20T19:43:41.381Z,97015.88
2023-04-20T19:46:09.841Z,97016.09
2023-04-20T19:48:37.815Z,97016.31
2023-04-20T19:51:06.630Z,97020.28
2023-04-20T19:53:34.539Z,97011.63
2023-04-20T19:56:04.199Z,97011.53
2023-04-20T19:58:33.409Z,97011.63
2023-04-20T20:01:01.257Z,97007.66
2023-04-20T20:03:29.320Z,97005.31
2023-04-20T20:05:57.175Z,97008.59
2023-04-20T20:08:24.881Z,97005.03
2023-04-20T20:10:52.766Z,97004.78
2023-04-20T20:13:20.564Z,97006.50
2023-04-20T20:15:48.307Z,97018.44
2023-04-20T20:18:16.166Z,97012.84
2023-04-20T20:20:43.873Z,97009.44
2023-04-20T20:23:11.627Z,97002.16
2023-04-20T20:25:39.927Z,97007.22
2023-04-20T20:28:07.652Z,97008.94
2023-04-20T20:30:35.436Z,97014.22
2023-04-20T20:33:03.732Z,97014.22
2023-04-20T20:35:33.270Z,97010.06
2023-04-20T20:38:01.151Z,97019.59
2023-04-20T20:40:28.917Z,97013.09
2023-04-20T20:42:57.486Z,97021.94
2023-04-20T20:45:25.213Z,97010.75
2023-04-20T20:47:52.943Z,97007.41
2023-04-20T20:50:20.798Z,97010.06
2023-04-20T20:52:48.889Z,97005.34
2023-04-20T20:55:16.609Z,97005.59
2023-04-20T20:57:44.426Z,97009.41
2023-04-20T21:00:12.570Z,97006.81
2023-04-20T21:02:40.471Z,97012.97
2023-04-20T21:05:08.964Z,97009.16
2023-04-20T21:07:36.699Z,97005.69
2023-04-20T21:10:04.800Z,97016.13
2023-04-20T21:12:32.522Z,97020.94
2023-04-20T21:15:00.551Z,97022.94
2023-04-20T21:17:28.250Z,97015.41
2023-04-20T21:19:56.081Z,97015.22
2023-04-20T21:22:23.762Z,97016.03
2023-04-20T21:24:51.490Z,97017.91
2023-04-20T21:27:19.173Z,97022.75
2023-04-20T21:29:46.934Z,97026.56
2023-04-20T21:32:14.658Z,97035.28
2023-04-20T21:34:42.470Z,97029.22
2023-04-20T21:37:11.093Z,97023.66
2023-04-20T21:39:38.865Z,97026.69
2023-04-20T21:42:06.603Z,97025.81
2023-04-20T21:44:34.334Z,97031.69
2023-04-20T21:47:02.751Z,97028.22
2023-04-20T21:49:30.581Z,97029.91
2023-04-20T21:51:58.249Z,97034.72
2023-04-20T21:54:25.960Z,97022.06
2023-04-20T21:56:53.661Z,97021.53
2023-04-20T21:59:21.372Z,97028.56
2023-04-20T22:01:49.079Z,97028.56
2023-04-20T22:04:17.226Z,97026.78
2023-04-20T22:06:45.600Z,97022.75
2023-04-20T22:09:13.448Z,97019.72
2023-04-20T22:11:41.143Z,97026.66
2023-04-20T22:14:08.886Z,97026.34
2023-04-20T22:16:36.648Z,97021.50
2023-04-20T22:19:04.593Z,97022.31
2023-04-20T22:21:32.270Z,97025.59
2023-04-20T22:23:59.967Z,97028.88
2023-04-20T22:26:27.651Z,97028.00
2023-04-20T22:28:55.408Z,97027.75
2023-04-20T22:31:23.128Z,97023.47
2023-04-20T22:33:50.872Z,97035.53
2023-04-20T22:36:18.570Z,97023.75
2023-04-20T22:38:46.321Z,97020.47
2023-04-20T22:41:16.678Z,97020.75
2023-04-20T22:43:45.186Z,97019.56
2023-04-20T22:46:12.917Z,97016.25
2023-04-20T22:48:41.764Z,97006.72
2023-04-20T22:51:09.412Z,97012.59
2023-04-20T22:53:37.092Z,97014.19
2023-04-20T22:56:08.020Z,97006.91
2023-04-20T22:58:35.819Z,96998.41
2023-04-20T23:01:03.570Z,97004.22
2023-04-20T23:03:32.140Z,97001.19
2023-04-20T23:06:00.256Z,96997.47
2023-04-20T23:08:28.342Z,97003.31
2023-04-20T23:10:56.191Z,97003.44
2023-04-20T23:13:26.416Z,97005.59
2023-04-20T23:15:54.473Z,96999.38
2023-04-20T23:18:22.247Z,96992.69
2023-04-20T23:20:49.966Z,96986.16
2023-04-20T23:23:18.068Z,96983.13
2023-04-20T23:25:45.843Z,96983.72
2023-04-20T23:28:13.499Z,96981.81
2023-04-20T23:30:41.342Z,96980.13
2023-04-20T23:33:09.115Z,96970.47
2023-04-20T23:35:36.990Z,96973.53
2023-04-20T23:38:04.729Z,96963.97
2023-04-20T23:40:32.425Z,96964.03
2023-04-20T23:43:00.174Z,96960.91
2023-04-20T23:45:28.033Z,96958.59
2023-04-20T23:47:56.022Z,96952.75
2023-04-20T23:50:23.792Z,96970.50
2023-04-20T23:52:51.535Z,96958.81
2023-04-20T23:55:19.313Z,96958.75
2023-04-20T23:57:47.061Z,96954.72
